sensor_id;sensor_type;location;lat;lon;timestamp;pressure;altitude;pressure_sealevel;temperature;humidity
41830;BME280;38614;43.472;23.936;2023-02-12T00:01:54;101351.94;;;-2.40;nan
41830;BME280;38614;43.472;23.936;2023-02-12T00:04:42;101349.25;;;-2.40;nan
41830;BME280;38614;43.472;23.936;2023-02-12T00:07:30;101352.78;;;-2.39;nan
41830;BME280;38614;43.472;23.936;2023-02-12T00:10:18;101354.81;;;-2.46;nan
41830;BME280;38614;43.472;23.936;2023-02-12T00:13:05;101350.47;;;-2.47;nan
41830;BME280;38614;43.472;23.936;2023-02-12T00:15:53;101336.81;;;-2.69;nan
41830;BME280;38614;43.472;23.936;2023-02-12T00:18:42;101354.38;;;-2.55;nan
41830;BME280;38614;43.472;23.936;2023-02-12T00:21:30;101346.88;;;-2.36;nan
41830;BME280;38614;43.472;23.936;2023-02-12T00:24:18;101319.72;;;-2.41;nan
41830;BME280;38614;43.472;23.936;2023-02-12T00:27:06;101341.38;;;-2.08;nan
41830;BME280;38614;43.472;23.936;2023-02-12T00:29:53;101331.78;;;-1.98;nan
41830;BME280;38614;43.472;23.936;2023-02-12T00:32:41;101298.88;;;-2.24;nan
41830;BME280;38614;43.472;23.936;2023-02-12T00:35:29;101341.22;;;-1.84;nan
41830;BME280;38614;43.472;23.936;2023-02-12T00:38:16;101340.81;;;-1.76;nan
41830;BME280;38614;43.472;23.936;2023-02-12T00:41:05;101341.03;;;-1.61;nan
41830;BME280;38614;43.472;23.936;2023-02-12T00:43:53;101338.88;;;-1.59;nan
41830;BME280;38614;43.472;23.936;2023-02-12T00:46:40;101338.59;;;-1.40;nan
41830;BME280;38614;43.472;23.936;2023-02-12T00:49:31;101323.47;;;-1.15;nan
41830;BME280;38614;43.472;23.936;2023-02-12T00:52:22;101321.19;;;-1.23;nan
41830;BME280;38614;43.472;23.936;2023-02-12T00:55:10;101314.41;;;-1.25;nan
41830;BME280;38614;43.472;23.936;2023-02-12T00:57:57;101320.59;;;-1.30;nan
41830;BME280;38614;43.472;23.936;2023-02-12T01:00:45;101305.63;;;-1.32;nan
41830;BME280;38614;43.472;23.936;2023-02-12T01:03:33;101270.63;;;-1.56;nan
41830;BME280;38614;43.472;23.936;2023-02-12T01:06:21;101306.06;;;-1.40;nan
41830;BME280;38614;43.472;23.936;2023-02-12T01:09:08;101299.50;;;-1.45;nan
41830;BME280;38614;43.472;23.936;2023-02-12T01:11:56;101277.13;;;-1.57;nan
41830;BME280;38614;43.472;23.936;2023-02-12T01:14:44;101303.59;;;-1.64;nan
41830;BME280;38614;43.472;23.936;2023-02-12T01:17:33;101288.69;;;-1.83;nan
41830;BME280;38614;43.472;23.936;2023-02-12T01:20:23;101285.31;;;-2.07;nan
41830;BME280;38614;43.472;23.936;2023-02-12T01:23:12;101293.13;;;-2.11;nan
41830;BME280;38614;43.472;23.936;2023-02-12T01:25:59;101280.66;;;-2.12;nan
41830;BME280;38614;43.472;23.936;2023-02-12T01:28:52;101286.66;;;-2.10;nan
41830;BME280;38614;43.472;23.936;2023-02-12T01:31:40;101281.88;;;-2.03;nan
41830;BME280;38614;43.472;23.936;2023-02-12T01:34:29;101250.69;;;-2.05;nan
41830;BME280;38614;43.472;23.936;2023-02-12T01:37:16;101284.09;;;-1.99;nan
41830;BME280;38614;43.472;23.936;2023-02-12T01:40:06;101276.38;;;-2.08;nan
41830;BME280;38614;43.472;23.936;2023-02-12T01:42:53;101265.56;;;-2.08;nan
41830;BME280;38614;43.472;23.936;2023-02-12T01:45:45;101277.94;;;-1.95;nan
41830;BME280;38614;43.472;23.936;2023-02-12T01:48:39;101253.66;;;-2.07;nan
41830;BME280;38614;43.472;23.936;2023-02-12T01:51:28;101273.94;;;-1.70;nan
41830;BME280;38614;43.472;23.936;2023-02-12T01:54:18;101281.47;;;-1.56;nan
41830;BME280;38614;43.472;23.936;2023-02-12T01:57:08;101280.91;;;-1.36;nan
41830;BME280;38614;43.472;23.936;2023-02-12T02:00:00;101281.94;;;-1.20;nan
41830;BME280;38614;43.472;23.936;2023-02-12T02:03:00;101285.31;;;-1.08;nan
41830;BME280;38614;43.472;23.936;2023-02-12T02:08:40;101288.47;;;-1.16;nan
41830;BME280;38614;43.472;23.936;2023-02-12T02:11:29;101282.16;;;-1.22;nan
41830;BME280;38614;43.472;23.936;2023-02-12T02:14:36;101263.97;;;-1.48;nan
41830;BME280;38614;43.472;23.936;2023-02-12T02:23:38;101294.84;;;-1.27;nan
41830;BME280;38614;43.472;23.936;2023-02-12T02:33:23;101292.59;;;-1.35;nan
41830;BME280;38614;43.472;23.936;2023-02-12T02:42:43;101278.69;;;-1.99;nan
41830;BME280;38614;43.472;23.936;2023-02-12T02:45:41;101282.97;;;-2.04;nan
41830;BME280;38614;43.472;23.936;2023-02-12T02:48:36;101288.94;;;-2.18;nan
41830;BME280;38614;43.472;23.936;2023-02-12T02:51:30;101284.44;;;-2.13;nan
41830;BME280;38614;43.472;23.936;2023-02-12T02:54:26;101279.50;;;-2.16;nan
41830;BME280;38614;43.472;23.936;2023-02-12T02:57:25;101269.34;;;-2.25;nan
41830;BME280;38614;43.472;23.936;2023-02-12T03:03:15;101288.53;;;-2.10;nan
41830;BME280;38614;43.472;23.936;2023-02-12T03:06:28;101277.97;;;-2.12;nan
41830;BME280;38614;43.472;23.936;2023-02-12T03:12:36;101273.34;;;-2.45;nan
41830;BME280;38614;43.472;23.936;2023-02-12T03:15:45;101290.91;;;-2.47;nan
41830;BME280;38614;43.472;23.936;2023-02-12T03:19:02;101284.25;;;-2.56;nan
41830;BME280;38614;43.472;23.936;2023-02-12T03:21:49;101277.44;;;-2.59;nan
41830;BME280;38614;43.472;23.936;2023-02-12T03:24:45;101284.81;;;-2.54;nan
41830;BME280;38614;43.472;23.936;2023-02-12T03:27:42;101292.38;;;-2.56;nan
41830;BME280;38614;43.472;23.936;2023-02-12T03:30:44;101283.69;;;-2.59;nan
41830;BME280;38614;43.472;23.936;2023-02-12T03:34:08;101270.63;;;-2.62;nan
41830;BME280;38614;43.472;23.936;2023-02-12T03:40:14;101295.03;;;-2.28;nan
41830;BME280;38614;43.472;23.936;2023-02-12T03:43:05;101265.97;;;-2.49;nan
41830;BME280;38614;43.472;23.936;2023-02-12T03:49:06;101295.41;;;-2.36;nan
41830;BME280;38614;43.472;23.936;2023-02-12T03:51:57;101290.94;;;-2.31;nan
41830;BME280;38614;43.472;23.936;2023-02-12T03:54:45;101292.88;;;-2.26;nan
41830;BME280;38614;43.472;23.936;2023-02-12T03:57:38;101291.19;;;-2.32;nan
41830;BME280;38614;43.472;23.936;2023-02-12T04:00:27;101282.25;;;-2.33;nan
41830;BME280;38614;43.472;23.936;2023-02-12T04:03:15;101291.31;;;-2.05;nan
41830;BME280;38614;43.472;23.936;2023-02-12T04:06:03;101296.72;;;-2.05;nan
41830;BME280;38614;43.472;23.936;2023-02-12T04:08:52;101264.66;;;-2.30;nan
41830;BME280;38614;43.472;23.936;2023-02-12T04:18:09;101310.34;;;-1.83;nan
41830;BME280;38614;43.472;23.936;2023-02-12T04:21:07;101310.78;;;-1.91;nan
41830;BME280;38614;43.472;23.936;2023-02-12T04:24:12;101316.59;;;-1.99;nan
41830;BME280;38614;43.472;23.936;2023-02-12T04:27:28;101312.41;;;-2.07;nan
41830;BME280;38614;43.472;23.936;2023-02-12T04:30:28;101299.53;;;-2.17;nan
41830;BME280;38614;43.472;23.936;2023-02-12T04:33:20;101325.06;;;-2.13;nan
41830;BME280;38614;43.472;23.936;2023-02-12T04:36:24;101320.53;;;-2.07;nan
41830;BME280;38614;43.472;23.936;2023-02-12T04:39:21;101307.75;;;-2.12;nan
41830;BME280;38614;43.472;23.936;2023-02-12T04:42:10;101314.88;;;-2.22;nan
41830;BME280;38614;43.472;23.936;2023-02-12T04:44:58;101327.09;;;-2.20;nan
41830;BME280;38614;43.472;23.936;2023-02-12T04:47:45;101305.13;;;-2.40;nan
41830;BME280;38614;43.472;23.936;2023-02-12T04:50:42;101318.88;;;-2.25;nan
41830;BME280;38614;43.472;23.936;2023-02-12T04:53:30;101325.63;;;-2.27;nan
41830;BME280;38614;43.472;23.936;2023-02-12T04:56:35;101341.72;;;-2.21;nan
41830;BME280;38614;43.472;23.936;2023-02-12T04:59:23;101325.53;;;-2.16;nan
41830;BME280;38614;43.472;23.936;2023-02-12T05:02:11;101332.13;;;-2.12;nan
41830;BME280;38614;43.472;23.936;2023-02-12T05:04:59;101326.31;;;-2.04;nan
41830;BME280;38614;43.472;23.936;2023-02-12T05:07:46;101339.75;;;-1.92;nan
41830;BME280;38614;43.472;23.936;2023-02-12T05:10:34;101310.63;;;-2.02;nan
41830;BME280;38614;43.472;23.936;2023-02-12T05:13:22;101328.50;;;-1.84;nan
41830;BME280;38614;43.472;23.936;2023-02-12T05:16:10;101339.56;;;-1.68;nan
41830;BME280;38614;43.472;23.936;2023-02-12T05:18:58;101349.81;;;-1.70;nan
41830;BME280;38614;43.472;23.936;2023-02-12T05:21:48;101342.50;;;-1.70;nan
41830;BME280;38614;43.472;23.936;2023-02-12T05:24:36;101341.94;;;-1.72;nan
41830;BME280;38614;43.472;23.936;2023-02-12T05:27:27;101344.50;;;-1.65;nan
41830;BME280;38614;43.472;23.936;2023-02-12T05:30:14;101352.63;;;-1.65;nan
41830;BME280;38614;43.472;23.936;2023-02-12T05:33:02;101365.97;;;-1.59;nan
41830;BME280;38614;43.472;23.936;2023-02-12T05:35:50;101350.16;;;-1.67;nan
41830;BME280;38614;43.472;23.936;2023-02-12T05:38:38;101352.94;;;-1.62;nan
41830;BME280;38614;43.472;23.936;2023-02-12T05:41:26;101369.91;;;-1.50;nan
41830;BME280;38614;43.472;23.936;2023-02-12T05:44:14;101377.56;;;-1.47;nan
41830;BME280;38614;43.472;23.936;2023-02-12T05:47:01;101364.75;;;-1.51;nan
41830;BME280;38614;43.472;23.936;2023-02-12T05:49:49;101368.03;;;-1.49;nan
41830;BME280;38614;43.472;23.936;2023-02-12T05:52:37;101382.22;;;-1.42;nan
41830;BME280;38614;43.472;23.936;2023-02-12T05:55:24;101397.19;;;-1.39;nan
41830;BME280;38614;43.472;23.936;2023-02-12T05:58:12;101382.47;;;-1.44;nan
41830;BME280;38614;43.472;23.936;2023-02-12T06:01:02;101365.91;;;-1.47;nan
41830;BME280;38614;43.472;23.936;2023-02-12T06:03:50;101402.00;;;-1.25;nan
41830;BME280;38614;43.472;23.936;2023-02-12T06:06:38;101413.25;;;-1.16;nan
41830;BME280;38614;43.472;23.936;2023-02-12T06:09:29;101419.31;;;-1.09;nan
41830;BME280;38614;43.472;23.936;2023-02-12T06:12:23;101389.59;;;-1.21;nan
41830;BME280;38614;43.472;23.936;2023-02-12T06:15:10;101415.09;;;-1.00;nan
41830;BME280;38614;43.472;23.936;2023-02-12T06:17:58;101422.81;;;-0.92;nan
41830;BME280;38614;43.472;23.936;2023-02-12T06:20:46;101424.75;;;-0.87;nan
41830;BME280;38614;43.472;23.936;2023-02-12T06:23:33;101426.13;;;-0.84;nan
41830;BME280;38614;43.472;23.936;2023-02-12T06:26:22;101425.31;;;-0.85;nan
41830;BME280;38614;43.472;23.936;2023-02-12T06:29:10;101423.25;;;-0.78;nan
41830;BME280;38614;43.472;23.936;2023-02-12T06:31:59;101414.84;;;-0.76;nan
41830;BME280;38614;43.472;23.936;2023-02-12T06:34:47;101415.03;;;-0.61;nan
41830;BME280;38614;43.472;23.936;2023-02-12T06:37:35;101426.50;;;-0.32;nan
41830;BME280;38614;43.472;23.936;2023-02-12T06:40:24;101431.03;;;-0.16;nan
41830;BME280;38614;43.472;23.936;2023-02-12T06:43:14;101417.69;;;-0.17;nan
41830;BME280;38614;43.472;23.936;2023-02-12T06:46:03;101428.59;;;-0.12;nan
41830;BME280;38614;43.472;23.936;2023-02-12T06:48:55;101437.19;;;0.02;nan
41830;BME280;38614;43.472;23.936;2023-02-12T06:51:44;101438.56;;;0.04;nan
41830;BME280;38614;43.472;23.936;2023-02-12T06:54:32;101440.34;;;0.20;nan
41830;BME280;38614;43.472;23.936;2023-02-12T06:57:19;101444.25;;;0.35;nan
41830;BME280;38614;43.472;23.936;2023-02-12T07:00:08;101459.16;;;0.59;nan
41830;BME280;38614;43.472;23.936;2023-02-12T07:02:56;101450.63;;;0.88;nan
41830;BME280;38614;43.472;23.936;2023-02-12T07:05:44;101450.66;;;0.93;nan
41830;BME280;38614;43.472;23.936;2023-02-12T07:08:32;101468.94;;;1.02;nan
41830;BME280;38614;43.472;23.936;2023-02-12T07:11:29;101459.44;;;1.05;nan
41830;BME280;38614;43.472;23.936;2023-02-12T07:14:17;101464.50;;;1.38;nan
41830;BME280;38614;43.472;23.936;2023-02-12T07:17:06;101462.25;;;1.88;nan
41830;BME280;38614;43.472;23.936;2023-02-12T07:19:58;101443.47;;;2.83;nan
41830;BME280;38614;43.472;23.936;2023-02-12T07:22:46;101463.84;;;3.86;nan
41830;BME280;38614;43.472;23.936;2023-02-12T07:25:35;101436.81;;;3.20;nan
41830;BME280;38614;43.472;23.936;2023-02-12T07:28:23;101469.91;;;2.98;nan
41830;BME280;38614;43.472;23.936;2023-02-12T07:31:16;101474.03;;;2.75;nan
41830;BME280;38614;43.472;23.936;2023-02-12T07:34:05;101478.13;;;2.67;nan
41830;BME280;38614;43.472;23.936;2023-02-12T07:36:55;101450.03;;;2.41;nan
41830;BME280;38614;43.472;23.936;2023-02-12T07:39:42;101463.13;;;2.44;nan
41830;BME280;38614;43.472;23.936;2023-02-12T07:42:30;101482.50;;;2.63;nan
41830;BME280;38614;43.472;23.936;2023-02-12T07:45:23;101475.97;;;2.64;nan
41830;BME280;38614;43.472;23.936;2023-02-12T07:48:12;101477.84;;;2.79;nan
41830;BME280;38614;43.472;23.936;2023-02-12T07:51:08;101470.47;;;2.69;nan
41830;BME280;38614;43.472;23.936;2023-02-12T07:53:56;101487.69;;;2.90;nan
41830;BME280;38614;43.472;23.936;2023-02-12T07:56:44;101481.94;;;2.86;nan
41830;BME280;38614;43.472;23.936;2023-02-12T07:59:33;101497.22;;;2.98;nan
41830;BME280;38614;43.472;23.936;2023-02-12T08:02:21;101507.31;;;2.97;nan
41830;BME280;38614;43.472;23.936;2023-02-12T08:05:12;101504.34;;;2.99;nan
41830;BME280;38614;43.472;23.936;2023-02-12T08:07:59;101462.88;;;2.71;nan
41830;BME280;38614;43.472;23.936;2023-02-12T08:10:47;101506.50;;;3.02;nan
41830;BME280;38614;43.472;23.936;2023-02-12T08:13:35;101507.84;;;3.14;nan
41830;BME280;38614;43.472;23.936;2023-02-12T08:16:25;101469.94;;;2.82;nan
41830;BME280;38614;43.472;23.936;2023-02-12T08:19:13;101512.19;;;3.15;nan
41830;BME280;38614;43.472;23.936;2023-02-12T08:22:07;101517.13;;;3.19;nan
41830;BME280;38614;43.472;23.936;2023-02-12T08:24:54;101522.28;;;3.30;nan
41830;BME280;38614;43.472;23.936;2023-02-12T08:27:45;101515.78;;;3.11;nan
41830;BME280;38614;43.472;23.936;2023-02-12T08:30:35;101526.41;;;3.12;nan
41830;BME280;38614;43.472;23.936;2023-02-12T08:33:25;101544.16;;;3.20;nan
41830;BME280;38614;43.472;23.936;2023-02-12T08:36:17;101534.34;;;3.09;nan
41830;BME280;38614;43.472;23.936;2023-02-12T08:39:07;101527.00;;;2.99;nan
41830;BME280;38614;43.472;23.936;2023-02-12T08:41:58;101543.91;;;3.17;nan
41830;BME280;38614;43.472;23.936;2023-02-12T08:44:46;101549.38;;;3.17;nan
41830;BME280;38614;43.472;23.936;2023-02-12T08:47:33;101559.72;;;3.14;nan
41830;BME280;38614;43.472;23.936;2023-02-12T08:50:21;101570.13;;;3.12;nan
41830;BME280;38614;43.472;23.936;2023-02-12T08:53:09;101579.41;;;3.22;nan
41830;BME280;38614;43.472;23.936;2023-02-12T08:55:57;101485.50;;;2.77;nan
41830;BME280;38614;43.472;23.936;2023-02-12T08:58:45;101574.72;;;3.48;nan
41830;BME280;38614;43.472;23.936;2023-02-12T09:01:35;101572.53;;;3.39;nan
41830;BME280;38614;43.472;23.936;2023-02-12T09:04:29;101562.97;;;3.42;nan
41830;BME280;38614;43.472;23.936;2023-02-12T09:07:17;101593.03;;;3.42;nan
41830;BME280;38614;43.472;23.936;2023-02-12T09:10:05;101561.63;;;3.24;nan
41830;BME280;38614;43.472;23.936;2023-02-12T09:12:53;101583.22;;;3.36;nan
41830;BME280;38614;43.472;23.936;2023-02-12T09:15:43;101587.03;;;3.40;nan
41830;BME280;38614;43.472;23.936;2023-02-12T09:18:32;101589.19;;;3.48;nan
41830;BME280;38614;43.472;23.936;2023-02-12T09:21:20;101590.56;;;3.51;nan
41830;BME280;38614;43.472;23.936;2023-02-12T09:24:12;101594.66;;;3.58;nan
41830;BME280;38614;43.472;23.936;2023-02-12T09:27:00;101584.78;;;3.72;nan
41830;BME280;38614;43.472;23.936;2023-02-12T09:29:48;101587.22;;;3.74;nan
41830;BME280;38614;43.472;23.936;2023-02-12T09:32:35;101601.72;;;3.69;nan
41830;BME280;38614;43.472;23.936;2023-02-12T09:35:23;101596.56;;;3.53;nan
41830;BME280;38614;43.472;23.936;2023-02-12T09:38:11;101601.19;;;3.62;nan
41830;BME280;38614;43.472;23.936;2023-02-12T09:47:41;101621.41;;;3.66;nan
41830;BME280;38614;43.472;23.936;2023-02-12T09:53:35;101635.38;;;3.60;nan
41830;BME280;38614;43.472;23.936;2023-02-12T09:56:25;101634.81;;;3.63;nan
41830;BME280;38614;43.472;23.936;2023-02-12T09:59:36;101637.81;;;3.82;nan
41830;BME280;38614;43.472;23.936;2023-02-12T10:02:25;101613.22;;;3.61;nan
41830;BME280;38614;43.472;23.936;2023-02-12T10:05:25;101644.34;;;3.86;nan
41830;BME280;38614;43.472;23.936;2023-02-12T10:18:20;101639.81;;;4.31;nan
41830;BME280;38614;43.472;23.936;2023-02-12T10:27:06;101638.22;;;4.19;nan
41830;BME280;38614;43.472;23.936;2023-02-12T10:29:56;101649.97;;;4.20;nan
41830;BME280;38614;43.472;23.936;2023-02-12T10:33:04;101633.94;;;3.93;nan
41830;BME280;38614;43.472;23.936;2023-02-12T10:35:58;101671.06;;;4.14;nan
41830;BME280;38614;43.472;23.936;2023-02-12T10:38:54;101662.56;;;4.21;nan
41830;BME280;38614;43.472;23.936;2023-02-12T10:42:00;101672.59;;;4.36;nan
41830;BME280;38614;43.472;23.936;2023-02-12T10:44:48;101670.78;;;4.16;nan
41830;BME280;38614;43.472;23.936;2023-02-12T10:47:38;101667.72;;;4.27;nan
41830;BME280;38614;43.472;23.936;2023-02-12T10:53:51;101666.13;;;4.21;nan
41830;BME280;38614;43.472;23.936;2023-02-12T10:56:39;101666.41;;;4.20;nan
41830;BME280;38614;43.472;23.936;2023-02-12T10:59:28;101618.31;;;3.98;nan
41830;BME280;38614;43.472;23.936;2023-02-12T11:02:31;101628.97;;;4.00;nan
41830;BME280;38614;43.472;23.936;2023-02-12T11:05:24;101651.38;;;4.12;nan
41830;BME280;38614;43.472;23.936;2023-02-12T11:08:36;101659.50;;;4.27;nan
41830;BME280;38614;43.472;23.936;2023-02-12T11:11:30;101662.84;;;4.19;nan
41830;BME280;38614;43.472;23.936;2023-02-12T11:14:27;101650.75;;;4.31;nan
41830;BME280;38614;43.472;23.936;2023-02-12T11:17:23;101650.22;;;4.23;nan
41830;BME280;38614;43.472;23.936;2023-02-12T11:23:04;101654.97;;;4.62;nan
41830;BME280;38614;43.472;23.936;2023-02-12T11:26:02;101668.88;;;4.71;nan
41830;BME280;38614;43.472;23.936;2023-02-12T11:29:08;101664.16;;;4.81;nan
41830;BME280;38614;43.472;23.936;2023-02-12T11:32:06;101659.34;;;4.63;nan
41830;BME280;38614;43.472;23.936;2023-02-12T11:35:14;101675.75;;;4.68;nan
41830;BME280;38614;43.472;23.936;2023-02-12T11:38:04;101677.41;;;4.64;nan
41830;BME280;38614;43.472;23.936;2023-02-12T11:40:56;101676.16;;;4.91;nan
41830;BME280;38614;43.472;23.936;2023-02-12T11:43:49;101658.50;;;5.07;nan
41830;BME280;38614;43.472;23.936;2023-02-12T11:46:50;101677.41;;;5.08;nan
41830;BME280;38614;43.472;23.936;2023-02-12T11:53:18;101682.13;;;4.98;nan
41830;BME280;38614;43.472;23.936;2023-02-12T11:56:12;101688.63;;;4.68;nan
41830;BME280;38614;43.472;23.936;2023-02-12T11:59:11;101663.28;;;4.42;nan
41830;BME280;38614;43.472;23.936;2023-02-12T12:02:16;101683.31;;;4.86;nan
41830;BME280;38614;43.472;23.936;2023-02-12T12:05:18;101683.91;;;4.78;nan
41830;BME280;38614;43.472;23.936;2023-02-12T12:08:19;101666.97;;;4.71;nan
41830;BME280;38614;43.472;23.936;2023-02-12T12:11:14;101688.34;;;4.69;nan
41830;BME280;38614;43.472;23.936;2023-02-12T12:14:28;101687.69;;;4.88;nan
41830;BME280;38614;43.472;23.936;2023-02-12T12:17:17;101668.72;;;4.52;nan
41830;BME280;38614;43.472;23.936;2023-02-12T12:20:31;101663.97;;;4.68;nan
41830;BME280;38614;43.472;23.936;2023-02-12T12:23:24;101661.13;;;4.83;nan
41830;BME280;38614;43.472;23.936;2023-02-12T12:26:27;101648.72;;;4.56;nan
41830;BME280;38614;43.472;23.936;2023-02-12T12:29:26;101676.28;;;4.65;nan
41830;BME280;38614;43.472;23.936;2023-02-12T12:32:22;101690.31;;;4.58;nan
41830;BME280;38614;43.472;23.936;2023-02-12T12:35:13;101693.88;;;4.59;nan
41830;BME280;38614;43.472;23.936;2023-02-12T12:38:27;101686.13;;;4.76;nan
41830;BME280;38614;43.472;23.936;2023-02-12T12:41:29;101667.59;;;4.58;nan
41830;BME280;38614;43.472;23.936;2023-02-12T12:57:03;101706.16;;;4.67;nan
41830;BME280;38614;43.472;23.936;2023-02-12T13:06:36;101711.66;;;4.62;nan
41830;BME280;38614;43.472;23.936;2023-02-12T13:10:14;101712.75;;;4.55;nan
41830;BME280;38614;43.472;23.936;2023-02-12T13:13:12;101713.56;;;4.61;nan
41830;BME280;38614;43.472;23.936;2023-02-12T13:19:01;101722.34;;;4.58;nan
41830;BME280;38614;43.472;23.936;2023-02-12T13:25:00;101743.59;;;4.81;nan
41830;BME280;38614;43.472;23.936;2023-02-12T13:27:58;101728.03;;;4.72;nan
41830;BME280;38614;43.472;23.936;2023-02-12T13:30:49;101750.41;;;4.89;nan
41830;BME280;38614;43.472;23.936;2023-02-12T13:33:46;101740.84;;;4.81;nan
41830;BME280;38614;43.472;23.936;2023-02-12T13:36:37;101726.19;;;4.52;nan
41830;BME280;38614;43.472;23.936;2023-02-12T13:39:31;101749.19;;;4.56;nan
41830;BME280;38614;43.472;23.936;2023-02-12T13:42:43;101755.22;;;4.58;nan
41830;BME280;38614;43.472;23.936;2023-02-12T13:45:43;101754.59;;;4.76;nan
41830;BME280;38614;43.472;23.936;2023-02-12T13:52:12;101767.50;;;4.66;nan
41830;BME280;38614;43.472;23.936;2023-02-12T13:55:39;101775.38;;;4.77;nan
41830;BME280;38614;43.472;23.936;2023-02-12T14:01:54;101783.97;;;4.45;nan
41830;BME280;38614;43.472;23.936;2023-02-12T14:04:52;101785.63;;;4.36;nan
41830;BME280;38614;43.472;23.936;2023-02-12T14:07:47;101792.22;;;4.35;nan
41830;BME280;38614;43.472;23.936;2023-02-12T14:10:40;101799.34;;;4.26;nan
41830;BME280;38614;43.472;23.936;2023-02-12T14:13:31;101751.81;;;4.02;nan
41830;BME280;38614;43.472;23.936;2023-02-12T14:31:42;101825.66;;;3.91;nan
41830;BME280;38614;43.472;23.936;2023-02-12T14:37:32;101801.28;;;3.80;nan
41830;BME280;38614;43.472;23.936;2023-02-12T14:43:37;101817.16;;;3.88;nan
41830;BME280;38614;43.472;23.936;2023-02-12T14:49:48;101823.47;;;3.93;nan
41830;BME280;38614;43.472;23.936;2023-02-12T14:52:45;101834.69;;;3.92;nan
41830;BME280;38614;43.472;23.936;2023-02-12T14:55:35;101827.03;;;3.94;nan
41830;BME280;38614;43.472;23.936;2023-02-12T14:58:24;101818.28;;;3.92;nan
41830;BME280;38614;43.472;23.936;2023-02-12T15:01:13;101818.00;;;3.83;nan
41830;BME280;38614;43.472;23.936;2023-02-12T15:04:13;101838.47;;;3.81;nan
41830;BME280;38614;43.472;23.936;2023-02-12T15:07:07;101802.94;;;3.45;nan
41830;BME280;38614;43.472;23.936;2023-02-12T15:10:03;101846.13;;;3.58;nan
41830;BME280;38614;43.472;23.936;2023-02-12T15:16:04;101846.91;;;3.43;nan
41830;BME280;38614;43.472;23.936;2023-02-12T15:21:53;101843.31;;;3.23;nan
41830;BME280;38614;43.472;23.936;2023-02-12T15:24:41;101864.56;;;3.15;nan
41830;BME280;38614;43.472;23.936;2023-02-12T15:27:28;101844.03;;;2.98;nan
41830;BME280;38614;43.472;23.936;2023-02-12T15:30:24;101855.25;;;3.01;nan
41830;BME280;38614;43.472;23.936;2023-02-12T15:33:26;101867.72;;;2.82;nan
41830;BME280;38614;43.472;23.936;2023-02-12T15:36:18;101868.28;;;2.84;nan
41830;BME280;38614;43.472;23.936;2023-02-12T15:39:07;101883.03;;;2.88;nan
41830;BME280;38614;43.472;23.936;2023-02-12T15:41:55;101874.78;;;2.73;nan
41830;BME280;38614;43.472;23.936;2023-02-12T15:44:43;101876.63;;;2.67;nan
41830;BME280;38614;43.472;23.936;2023-02-12T15:47:31;101887.00;;;2.65;nan
41830;BME280;38614;43.472;23.936;2023-02-12T15:50:24;101892.19;;;2.67;nan
41830;BME280;38614;43.472;23.936;2023-02-12T15:53:13;101908.03;;;2.65;nan
41830;BME280;38614;43.472;23.936;2023-02-12T15:56:03;101911.56;;;2.65;nan
41830;BME280;38614;43.472;23.936;2023-02-12T15:58:53;101904.75;;;2.63;nan
41830;BME280;38614;43.472;23.936;2023-02-12T16:01:55;101895.31;;;2.43;nan
41830;BME280;38614;43.472;23.936;2023-02-12T16:04:43;101920.38;;;2.40;nan
41830;BME280;38614;43.472;23.936;2023-02-12T16:07:36;101924.19;;;2.34;nan
41830;BME280;38614;43.472;23.936;2023-02-12T16:10:24;101928.50;;;2.30;nan
41830;BME280;38614;43.472;23.936;2023-02-12T16:13:34;101923.66;;;2.37;nan
41830;BME280;38614;43.472;23.936;2023-02-12T16:16:39;101903.25;;;2.13;nan
41830;BME280;38614;43.472;23.936;2023-02-12T16:19:32;101922.44;;;2.23;nan
41830;BME280;38614;43.472;23.936;2023-02-12T16:22:26;101918.97;;;2.00;nan
41830;BME280;38614;43.472;23.936;2023-02-12T16:25:21;101952.47;;;1.96;nan
41830;BME280;38614;43.472;23.936;2023-02-12T16:31:11;101984.00;;;1.87;nan
41830;BME280;38614;43.472;23.936;2023-02-12T16:34:00;101985.75;;;1.76;nan
41830;BME280;38614;43.472;23.936;2023-02-12T16:36:50;101987.38;;;1.72;nan
41830;BME280;38614;43.472;23.936;2023-02-12T16:42:35;102002.38;;;1.75;nan
41830;BME280;38614;43.472;23.936;2023-02-12T16:48:22;101971.34;;;1.54;nan
41830;BME280;38614;43.472;23.936;2023-02-12T16:54:32;101994.47;;;1.73;nan
41830;BME280;38614;43.472;23.936;2023-02-12T16:57:22;102010.56;;;1.75;nan
41830;BME280;38614;43.472;23.936;2023-02-12T17:00:15;102006.06;;;1.63;nan
41830;BME280;38614;43.472;23.936;2023-02-12T17:03:03;102001.84;;;1.51;nan
41830;BME280;38614;43.472;23.936;2023-02-12T17:05:51;102000.63;;;1.41;nan
41830;BME280;38614;43.472;23.936;2023-02-12T17:08:39;102019.25;;;1.71;nan
41830;BME280;38614;43.472;23.936;2023-02-12T17:11:30;102020.59;;;1.69;nan
41830;BME280;38614;43.472;23.936;2023-02-12T17:14:20;102032.81;;;1.66;nan
41830;BME280;38614;43.472;23.936;2023-02-12T17:17:08;102046.56;;;1.55;nan
41830;BME280;38614;43.472;23.936;2023-02-12T17:20:00;102054.47;;;1.56;nan
41830;BME280;38614;43.472;23.936;2023-02-12T17:22:53;102057.63;;;1.48;nan
41830;BME280;38614;43.472;23.936;2023-02-12T17:25:41;102058.44;;;1.49;nan
41830;BME280;38614;43.472;23.936;2023-02-12T17:28:29;102037.84;;;1.36;nan
41830;BME280;38614;43.472;23.936;2023-02-12T17:31:18;102053.13;;;1.37;nan
41830;BME280;38614;43.472;23.936;2023-02-12T17:34:07;102060.31;;;1.43;nan
41830;BME280;38614;43.472;23.936;2023-02-12T17:36:57;102046.28;;;1.34;nan
41830;BME280;38614;43.472;23.936;2023-02-12T17:39:45;102060.97;;;1.33;nan
41830;BME280;38614;43.472;23.936;2023-02-12T17:42:33;102063.63;;;1.28;nan
41830;BME280;38614;43.472;23.936;2023-02-12T17:45:23;102051.59;;;1.24;nan
41830;BME280;38614;43.472;23.936;2023-02-12T17:48:12;102069.03;;;1.45;nan
41830;BME280;38614;43.472;23.936;2023-02-12T17:51:00;102058.16;;;1.45;nan
41830;BME280;38614;43.472;23.936;2023-02-12T17:53:48;102051.84;;;1.61;nan